sensor_id;sensor_type;location;lat;lon;timestamp;pressure;altitude;pressure_sealevel;temperature;humidity
18500;BME280;9379;52.134;11.576;2023-05-09T00:00:44;101561.47;;;14.57;62.68
18500;BME280;9379;52.134;11.576;2023-05-09T00:03:11;101524.50;;;14.31;63.49
18500;BME280;9379;52.134;11.576;2023-05-09T00:05:38;101547.22;;;14.07;64.13
18500;BME280;9379;52.134;11.576;2023-05-09T00:08:07;101543.25;;;14.41;63.18
18500;BME280;9379;52.134;11.576;2023-05-09T00:10:34;101543.06;;;14.23;63.85
18500;BME280;9379;52.134;11.576;2023-05-09T00:13:00;101544.78;;;14.24;64.16
18500;BME280;9379;52.134;11.576;2023-05-09T00:15:27;101526.41;;;14.10;64.37
18500;BME280;9379;52.134;11.576;2023-05-09T00:17:54;101526.34;;;14.31;63.51
18500;BME280;9379;52.134;11.576;2023-05-09T00:20:21;101531.16;;;13.97;64.83
18500;BME280;9379;52.134;11.576;2023-05-09T00:22:48;101531.53;;;14.23;64.07
18500;BME280;9379;52.134;11.576;2023-05-09T00:25:16;101527.97;;;14.03;64.81
18500;BME280;9379;52.134;11.576;2023-05-09T00:27:43;101527.25;;;14.11;64.58
18500;BME280;9379;52.134;11.576;2023-05-09T00:30:10;101527.28;;;14.61;63.19
18500;BME280;9379;52.134;11.576;2023-05-09T00:32:37;101533.09;;;14.35;63.95
18500;BME280;9379;52.134;11.576;2023-05-09T00:35:06;101538.84;;;14.21;64.25
18500;BME280;9379;52.134;11.576;2023-05-09T00:37:34;101533.72;;;14.08;64.62
18500;BME280;9379;52.134;11.576;2023-05-09T00:40:01;101529.53;;;14.15;64.35
18500;BME280;9379;52.134;11.576;2023-05-09T00:42:29;101525.91;;;14.26;64.10
18500;BME280;9379;52.134;11.576;2023-05-09T00:44:56;101527.91;;;14.43;64.00
18500;BME280;9379;52.134;11.576;2023-05-09T00:47:23;101526.88;;;13.85;65.65
18500;BME280;9379;52.134;11.576;2023-05-09T00:49:50;101520.25;;;14.19;64.46
18500;BME280;9379;52.134;11.576;2023-05-09T00:52:17;101516.81;;;14.38;64.07
18500;BME280;9379;52.134;11.576;2023-05-09T00:54:47;101522.34;;;14.56;63.84
18500;BME280;9379;52.134;11.576;2023-05-09T00:57:14;101514.38;;;14.25;65.07
18500;BME280;9379;52.134;11.576;2023-05-09T00:59:42;101507.31;;;14.15;64.66
18500;BME280;9379;52.134;11.576;2023-05-09T01:02:09;101508.19;;;14.25;64.69
18500;BME280;9379;52.134;11.576;2023-05-09T01:04:37;101500.75;;;14.38;64.88
18500;BME280;9379;52.134;11.576;2023-05-09T01:07:09;101502.97;;;14.33;64.51
18500;BME280;9379;52.134;11.576;2023-05-09T01:09:42;101495.31;;;14.09;65.25
18500;BME280;9379;52.134;11.576;2023-05-09T01:12:15;101496.41;;;13.97;65.69
18500;BME280;9379;52.134;11.576;2023-05-09T01:14:54;101497.63;;;13.83;66.18
18500;BME280;9379;52.134;11.576;2023-05-09T01:17:29;101497.59;;;14.14;65.90
18500;BME280;9379;52.134;11.576;2023-05-09T01:20:02;101492.38;;;14.02;66.18
18500;BME280;9379;52.134;11.576;2023-05-09T01:22:36;101494.94;;;14.14;65.68
18500;BME280;9379;52.134;11.576;2023-05-09T01:25:35;101483.75;;;13.99;66.10
18500;BME280;9379;52.134;11.576;2023-05-09T01:28:13;101486.69;;;13.96;66.74
18500;BME280;9379;52.134;11.576;2023-05-09T01:30:44;101487.91;;;14.13;65.84
18500;BME280;9379;52.134;11.576;2023-05-09T01:33:16;101481.34;;;13.96;66.54
18500;BME280;9379;52.134;11.576;2023-05-09T01:35:45;101474.53;;;14.13;65.99
18500;BME280;9379;52.134;11.576;2023-05-09T01:38:17;101479.97;;;14.11;66.52
18500;BME280;9379;52.134;11.576;2023-05-09T01:40:48;101483.41;;;14.13;66.75
18500;BME280;9379;52.134;11.576;2023-05-09T01:43:18;101478.97;;;13.93;66.35
18500;BME280;9379;52.134;11.576;2023-05-09T01:45:50;101483.25;;;13.75;67.87
18500;BME280;9379;52.134;11.576;2023-05-09T01:48:18;101481.16;;;13.78;67.37
18500;BME280;9379;52.134;11.576;2023-05-09T20:31:59;100418.53;;;18.83;49.94
18500;BME280;9379;52.134;11.576;2023-05-09T20:34:26;100413.44;;;18.67;50.45
18500;BME280;9379;52.134;11.576;2023-05-09T20:36:52;100415.72;;;18.70;50.41
18500;BME280;9379;52.134;11.576;2023-05-09T20:39:20;100412.19;;;18.70;50.36
18500;BME280;9379;52.134;11.576;2023-05-09T20:41:48;100416.50;;;18.64;50.69
18500;BME280;9379;52.134;11.576;2023-05-09T20:44:15;100409.28;;;18.64;50.88
18500;BME280;9379;52.134;11.576;2023-05-09T20:46:43;100405.34;;;18.67;50.90
18500;BME280;9379;52.134;11.576;2023-05-09T20:49:11;100406.88;;;18.55;51.27
18500;BME280;9379;52.134;11.576;2023-05-09T20:51:39;100404.03;;;18.63;51.36
18500;BME280;9379;52.134;11.576;2023-05-09T20:54:06;100405.06;;;18.62;51.61
18500;BME280;9379;52.134;11.576;2023-05-09T20:56:33;100401.69;;;18.75;51.44
18500;BME280;9379;52.134;11.576;2023-05-09T20:59:00;100401.13;;;18.79;51.51
18500;BME280;9379;52.134;11.576;2023-05-09T21:01:28;100405.63;;;18.57;52.12
18500;BME280;9379;52.134;11.576;2023-05-09T21:03:56;100397.81;;;18.62;51.75
18500;BME280;9379;52.134;11.576;2023-05-09T21:06:24;100405.06;;;18.62;52.24
18500;BME280;9379;52.134;11.576;2023-05-09T21:08:51;100400.53;;;18.26;52.97
18500;BME280;9379;52.134;11.576;2023-05-09T21:11:18;100387.81;;;18.56;52.32
18500;BME280;9379;52.134;11.576;2023-05-09T21:13:46;100393.38;;;18.33;52.89
18500;BME280;9379;52.134;11.576;2023-05-09T21:16:13;100388.97;;;18.47;52.60
18500;BME280;9379;52.134;11.576;2023-05-09T21:18:39;100383.06;;;18.37;52.75
18500;BME280;9379;52.134;11.576;2023-05-09T21:21:06;100386.28;;;18.47;52.72
18500;BME280;9379;52.134;11.576;2023-05-09T21:23:34;100388.47;;;18.58;52.77
18500;BME280;9379;52.134;11.576;2023-05-09T21:26:01;100385.28;;;18.70;52.61
18500;BME280;9379;52.134;11.576;2023-05-09T21:28:28;100376.66;;;18.38;53.29
18500;BME280;9379;52.134;11.576;2023-05-09T21:30:55;100381.53;;;18.64;52.88
18500;BME280;9379;52.134;11.576;2023-05-09T21:33:24;100381.72;;;18.48;53.30
18500;BME280;9379;52.134;11.576;2023-05-09T21:35:51;100379.22;;;18.46;53.54
18500;BME280;9379;52.134;11.576;2023-05-09T21:38:17;100372.63;;;18.27;53.98
18500;BME280;9379;52.134;11.576;2023-05-09T21:40:45;100376.97;;;18.28;53.79
18500;BME280;9379;52.134;11.576;2023-05-09T21:43:14;100376.16;;;18.49;53.45
18500;BME280;9379;52.134;11.576;2023-05-09T21:45:42;100375.41;;;18.55;53.33
18500;BME280;9379;52.134;11.576;2023-05-09T21:48:09;100375.09;;;18.29;54.22
18500;BME280;9379;52.134;11.576;2023-05-09T21:50:36;100372.75;;;18.19;54.05
18500;BME280;9379;52.134;11.576;2023-05-09T21:53:02;100368.22;;;18.20;54.12
18500;BME280;9379;52.134;11.576;2023-05-09T21:55:29;100370.59;;;18.29;54.17
18500;BME280;9379;52.134;11.576;2023-05-09T21:57:57;100363.53;;;18.50;53.65
18500;BME280;9379;52.134;11.576;2023-05-09T22:00:24;100370.31;;;18.24;54.33
18500;BME280;9379;52.134;11.576;2023-05-09T22:02:51;100359.88;;;18.36;53.87
18500;BME280;9379;52.134;11.576;2023-05-09T22:05:17;100358.00;;;18.15;54.69
18500;BME280;9379;52.134;11.576;2023-05-09T22:07:44;100353.59;;;18.29;54.36
18500;BME280;9379;52.134;11.576;2023-05-09T22:10:11;100356.47;;;18.06;55.02
18500;BME280;9379;52.134;11.576;2023-05-09T22:12:38;100354.63;;;17.92;55.25
18500;BME280;9379;52.134;11.576;2023-05-09T22:15:07;100356.19;;;18.01;54.63
18500;BME280;9379;52.134;11.576;2023-05-09T22:17:34;100344.59;;;18.00;55.01
18500;BME280;9379;52.134;11.576;2023-05-09T22:20:01;100345.03;;;18.19;54.40
18500;BME280;9379;52.134;11.576;2023-05-09T22:22:28;100348.09;;;17.79;55.51
18500;BME280;9379;52.134;11.576;2023-05-09T22:24:55;100341.13;;;17.85;55.32
18500;BME280;9379;52.134;11.576;2023-05-09T22:27:22;100344.44;;;18.23;54.61
18500;BME280;9379;52.134;11.576;2023-05-09T22:29:49;100345.84;;;18.19;54.54
18500;BME280;9379;52.134;11.576;2023-05-09T22:32:17;100340.69;;;18.03;55.10
18500;BME280;9379;52.134;11.576;2023-05-09T22:34:45;100335.81;;;17.92;54.87
18500;BME280;9379;52.134;11.576;2023-05-09T22:37:12;100318.81;;;17.70;55.77
18500;BME280;9379;52.134;11.576;2023-05-09T22:39:39;100323.50;;;17.83;55.54
18500;BME280;9379;52.134;11.576;2023-05-09T22:42:05;100329.00;;;17.74;55.71
18500;BME280;9379;52.134;11.576;2023-05-09T22:44:34;100318.97;;;17.68;56.41
18500;BME280;9379;52.134;11.576;2023-05-09T22:47:00;100320.56;;;17.77;55.64
18500;BME280;9379;52.134;11.576;2023-05-09T22:49:29;100315.81;;;17.79;55.30
18500;BME280;9379;52.134;11.576;2023-05-09T22:51:55;100320.06;;;17.89;55.51
18500;BME280;9379;52.134;11.576;2023-05-09T22:54:22;100319.22;;;17.88;56.21
18500;BME280;9379;52.134;11.576;2023-05-09T22:56:49;100323.16;;;17.86;55.72
18500;BME280;9379;52.134;11.576;2023-05-09T22:59:15;100323.16;;;17.86;56.26
18500;BME280;9379;52.134;11.576;2023-05-09T23:01:42;100312.41;;;17.71;55.82
18500;BME280;9379;52.134;11.576;2023-05-09T23:04:09;100314.25;;;17.56;57.09
18500;BME280;9379;52.134;11.576;2023-05-09T23:06:37;100313.66;;;17.39;57.59
18500;BME280;9379;52.134;11.576;2023-05-09T23:09:04;100315.13;;;17.12;57.40
18500;BME280;9379;52.134;11.576;2023-05-09T23:11:31;100314.00;;;17.50;56.95
18500;BME280;9379;52.134;11.576;2023-05-09T23:13:57;100311.25;;;17.29;57.43
18500;BME280;9379;52.134;11.576;2023-05-09T23:16:24;100309.06;;;17.84;55.92
18500;BME280;9379;52.134;11.576;2023-05-09T23:18:51;100309.56;;;17.94;55.83
18500;BME280;9379;52.134;11.576;2023-05-09T23:21:18;100307.41;;;17.53;56.39
18500;BME280;9379;52.134;11.576;2023-05-09T23:23:46;100307.91;;;17.27;57.61
18500;BME280;9379;52.134;11.576;2023-05-09T23:26:12;100308.75;;;17.28;57.83
18500;BME280;9379;52.134;11.576;2023-05-09T23:28:39;100309.97;;;17.25;58.25
18500;BME280;9379;52.134;11.576;2023-05-09T23:31:06;100310.75;;;17.55;57.00
18500;BME280;9379;52.134;11.576;2023-05-09T23:33:33;100305.56;;;17.24;57.95
18500;BME280;9379;52.134;11.576;2023-05-09T23:35:59;100291.69;;;16.91;58.92
18500;BME280;9379;52.134;11.576;2023-05-09T23:38:27;100297.25;;;17.19;58.19
18500;BME280;9379;52.134;11.576;2023-05-09T23:40:55;100298.72;;;17.21;58.63
18500;BME280;9379;52.134;11.576;2023-05-09T23:43:24;100296.06;;;17.07;58.75
18500;BME280;9379;52.134;11.576;2023-05-09T23:45:50;100287.44;;;17.26;58.15
18500;BME280;9379;52.134;11.576;2023-05-09T23:48:18;100282.97;;;17.33;57.93
18500;BME280;9379;52.134;11.576;2023-05-09T23:50:44;100280.19;;;17.41;57.46
18500;BME280;9379;52.134;11.576;2023-05-09T23:53:11;100288.72;;;17.30;57.99
18500;BME280;9379;52.134;11.576;2023-05-09T23:55:38;100277.75;;;17.61;56.92
18500;BME280;9379;52.134;11.576;2023-05-09T23:58:06;100271.47;;;17.54;57.18
